Time;durP1;ratioP1;P1;durP2;ratioP2;P2;SDS_P1;SDS_P2;PMS_P1;PMS_P2;Temp;Humidity;BMP_temperature;BMP_pressure;BME280_temperature;BME280_humidity;BME280_pressure;Samples;Min_cycle;Max_cycle;Signal;HPM_P1;HPM_P2
2023/10/01 00:00:18;;;;;;;6.83;4.30;;;15.60;99.90;;;15.93;nan;101607.34;4903958;29;20741;-70
2023/10/01 00:02:45;;;;;;;7.60;4.47;;;15.60;99.90;;;15.94;nan;101601.13;4903071;29;20634;-68
2023/10/01 00:05:12;;;;;;;8.87;4.20;;;15.60;99.90;;;15.94;nan;101602.91;4910223;29;20650;-69
2023/10/01 00:07:40;;;;;;;3.87;3.23;;;15.60;99.90;;;15.92;nan;101602.22;4919314;29;21240;-69
2023/10/01 00:10:13;;;;;;;3.57;3.27;;;15.60;99.90;;;15.89;nan;101600.66;4912088;29;20637;-69
2023/10/01 00:12:45;;;;;;;8.30;3.80;;;15.50;99.90;;;15.89;nan;101608.53;4908531;29;21330;-71
2023/10/01 00:15:16;;;;;;;8.53;3.80;;;15.50;99.90;;;15.89;nan;101608.53;4925156;29;20633;-69
2023/10/01 00:17:48;;;;;;;12.70;4.33;;;15.50;99.90;;;15.86;nan;101605.31;4899003;29;20674;-68
2023/10/01 00:20:25;;;;;;;7.40;4.53;;;15.50;99.90;;;15.83;nan;101611.66;4903922;29;20707;-70
2023/10/01 00:23:03;;;;;;;13.33;4.77;;;15.50;99.90;;;15.81;nan;101610.09;4904903;29;21221;-69
2023/10/01 00:25:32;;;;;;;6.30;4.13;;;15.40;99.90;;;15.80;nan;101613.69;4904488;29;20645;-69
2023/10/01 00:28:01;;;;;;;6.47;3.60;;;15.40;99.90;;;15.78;nan;101616.44;4912064;29;20630;-67
2023/10/01 00:30:31;;;;;;;9.17;4.70;;;15.40;99.90;;;15.80;nan;101613.69;4907661;29;20646;-68
2023/10/01 00:33:05;;;;;;;8.97;5.00;;;15.40;99.90;;;15.79;nan;101614.66;4905666;29;20696;-70
2023/10/01 00:35:32;;;;;;;8.83;4.10;;;15.40;99.90;;;15.80;nan;101609.25;4911052;29;20631;-68
2023/10/01 00:37:59;;;;;;;4.10;3.43;;;15.40;99.90;;;15.79;nan;101597.06;4924904;29;20638;-70
2023/10/01 00:40:27;;;;;;;3.80;3.33;;;15.40;99.90;;;15.80;nan;101600.56;4909254;29;20629;-71
2023/10/01 00:42:54;;;;;;;5.10;3.70;;;15.40;99.90;;;15.78;nan;101599.84;4907889;29;20705;-69
2023/10/01 00:45:21;;;;;;;5.47;3.60;;;15.40;99.90;;;15.78;nan;101599.84;4920694;29;21178;-71
2023/10/01 00:47:49;;;;;;;4.80;2.43;;;15.40;99.90;;;15.74;nan;101607.09;4902948;29;20678;-69
2023/10/01 00:50:21;;;;;;;4.97;3.67;;;15.40;99.90;;;15.72;nan;101605.53;4922621;29;20642;-68
2023/10/01 00:52:51;;;;;;;7.97;4.20;;;15.40;99.90;;;15.67;nan;101605.09;4907039;29;20728;-68
2023/10/01 00:55:20;;;;;;;9.67;3.87;;;15.30;99.90;;;15.62;nan;101610.69;4888931;29;20650;-68
2023/10/01 00:57:49;;;;;;;6.77;4.60;;;15.30;99.90;;;15.56;nan;101607.72;4911657;29;20692;-68
2023/10/01 01:00:17;;;;;;;10.40;4.50;;;15.20;99.90;;;15.51;nan;101608.06;4913277;29;20638;-67
2023/10/01 01:03:07;;;;;;;5.67;4.17;;;15.20;99.90;;;15.43;nan;101598.13;4906861;29;20646;-68
2023/10/01 01:05:41;;;;;;;4.87;2.87;;;15.10;99.90;;;15.40;nan;101600.97;4914181;29;20638;-68
2023/10/01 01:08:28;;;;;;;4.57;2.60;;;15.10;99.90;;;15.34;nan;101600.59;4913703;29;21430;-69
2023/10/01 01:10:57;;;;;;;7.57;4.37;;;15.00;99.90;;;15.29;nan;101593.06;4913943;29;20633;-67
2023/10/01 01:13:28;;;;;;;5.10;3.40;;;15.00;99.90;;;15.27;nan;101594.97;4913175;29;20708;-69
2023/10/01 01:15:57;;;;;;;7.43;3.20;;;14.90;99.90;;;15.25;nan;101588.13;4911557;29;20733;-68
2023/10/01 01:18:26;;;;;;;4.50;3.07;;;14.90;99.90;;;15.22;nan;101593.66;4924177;29;20706;-68
2023/10/01 01:21:05;;;;;;;5.60;3.23;;;14.90;99.90;;;15.19;nan;101593.88;4912539;29;20626;-71
2023/10/01 01:23:32;;;;;;;3.87;3.00;;;14.90;99.90;;;15.21;nan;101589.31;4913203;29;21215;-68
2023/10/01 01:25:59;;;;;;;10.13;3.47;;;14.90;99.90;;;15.19;nan;101589.44;4915057;29;20661;-69
2023/10/01 01:28:32;;;;;;;3.90;3.47;;;14.90;99.90;;;15.19;nan;101594.72;4913267;29;21230;-69
2023/10/01 01:31:04;;;;;;;5.53;3.50;;;14.90;99.90;;;15.22;nan;101594.50;4912233;29;20653;-69
2023/10/01 01:33:40;;;;;;;4.47;3.07;;;14.90;99.90;;;15.24;nan;101589.94;4912473;29;20685;-69
2023/10/01 01:36:17;;;;;;;3.50;3.20;;;14.90;99.90;;;15.24;nan;101586.47;4913072;29;20645;-69
2023/10/01 01:39:32;;;;;;;3.70;2.93;;;14.90;99.90;;;15.20;nan;101578.00;4914633;29;20664;-71
2023/10/01 01:42:00;;;;;;;3.67;2.30;;;14.90;99.90;;;15.17;nan;101572.97;4903226;29;21016;-70
2023/10/01 01:44:27;;;;;;;4.93;3.07;;;14.80;99.90;;;15.11;nan;101565.53;4919208;29;20637;-68
2023/10/01 01:46:59;;;;;;;3.73;2.90;;;14.80;99.90;;;15.10;nan;101571.75;4911291;29;20689;-69
2023/10/01 01:49:27;;;;;;;3.53;3.00;;;14.80;99.90;;;15.08;nan;101572.81;4914257;29;20685;-70
2023/10/01 01:52:03;;;;;;;4.03;3.00;;;14.70;99.90;;;15.03;nan;101572.34;4914750;29;20661;-70
2023/10/01 01:54:39;;;;;;;4.03;3.10;;;14.70;99.90;;;15.04;nan;101572.22;4915149;29;20673;-69
2023/10/01 01:57:13;;;;;;;5.57;3.00;;;14.70;99.90;;;15.04;nan;101564.34;4909578;29;20673;-69
2023/10/01 01:59:43;;;;;;;3.87;2.87;;;14.70;99.90;;;15.03;nan;101562.66;4913992;29;20637;-71
2023/10/01 02:02:11;;;;;;;3.30;3.00;;;14.70;99.90;;;14.94;nan;101552.84;4904468;29;20638;-70
2023/10/01 02:04:58;;;;;;;5.60;3.23;;;14.60;99.90;;;14.88;nan;101561.19;4907208;29;20639;-69
2023/10/01 02:07:28;;;;;;;3.97;3.23;;;14.60;99.90;;;14.86;nan;101562.25;4908317;29;21051;-70
2023/10/01 02:09:55;;;;;;;5.23;3.70;;;14.50;99.90;;;14.87;nan;101563.91;4905760;29;20660;-71
2023/10/01 02:12:25;;;;;;;6.57;3.63;;;14.60;99.90;;;14.85;nan;101566.66;4923408;29;20647;-71
2023/10/01 02:14:56;;;;;;;6.23;3.53;;;14.50;99.90;;;14.87;nan;101562.13;4909998;29;20645;-70
2023/10/01 02:17:25;;;;;;;3.43;2.83;;;14.50;99.90;;;14.89;nan;101567.25;4906513;29;20658;-69
2023/10/01 02:19:55;;;;;;;7.80;2.83;;;14.60;99.90;;;14.88;nan;101560.34;4913870;29;20697;-69
2023/10/01 02:22:24;;;;;;;4.70;2.90;;;14.60;99.90;;;14.87;nan;101561.28;4909617;29;20646;-69
2023/10/01 02:25:00;;;;;;;3.53;3.00;;;14.60;99.90;;;14.84;nan;101558.91;4913077;29;20630;-69
2023/10/01 02:27:28;;;;;;;5.07;3.03;;;14.50;99.90;;;14.82;nan;101561.66;4913363;29;20679;-68
2023/10/01 02:30:16;;;;;;;3.93;3.43;;;14.50;99.90;;;14.78;nan;101552.31;4912336;29;21215;-69
2023/10/01 02:32:49;;;;;;;5.20;3.40;;;14.50;99.90;;;14.78;nan;101558.41;4909043;29;20673;-71
2023/10/01 02:35:35;;;;;;;3.60;3.03;;;14.50;99.90;;;14.72;nan;101558.88;4920983;29;20637;-69
2023/10/01 02:38:06;;;;;;;3.40;2.67;;;14.50;99.90;;;14.73;nan;101562.34;4924402;29;20638;-71
2023/10/01 02:40:37;;;;;;;5.80;3.40;;;14.40;99.90;;;14.71;nan;101559.81;4914900;29;20634;-70
2023/10/01 02:43:09;;;;;;;4.43;2.80;;;14.40;99.90;;;14.63;nan;101553.44;4913512;29;20693;-70
2023/10/01 02:45:41;;;;;;;3.43;2.87;;;14.30;99.90;;;14.56;nan;101547.00;4912506;29;20642;-68
2023/10/01 02:48:16;;;;;;;3.53;3.00;;;14.30;99.90;;;14.56;nan;101547.00;4910764;29;21211;-69
2023/10/01 02:50:54;;;;;;;4.53;2.93;;;14.30;99.90;;;14.54;nan;101546.28;4912465;29;20676;-69
2023/10/01 02:53:23;;;;;;;6.10;3.20;;;14.20;99.90;;;14.53;nan;101555.94;4912450;29;20674;-66
2023/10/01 02:55:56;;;;;;;3.63;3.30;;;14.20;99.90;;;14.53;nan;101558.56;4909889;29;21487;-69
2023/10/01 02:58:32;;;;;;;5.60;3.50;;;14.20;99.90;;;14.54;nan;101556.78;4914075;29;20633;-71
2023/10/01 03:01:05;;;;;;;5.57;3.23;;;14.20;99.90;;;14.53;nan;101560.34;4911461;29;20692;-69
2023/10/01 03:03:32;;;;;;;5.03;3.37;;;14.20;99.90;;;14.52;nan;101563.94;4911263;29;20756;-69
2023/10/01 03:06:08;;;;;;;6.20;3.70;;;14.20;99.90;;;14.52;nan;101556.06;4911056;29;20665;-69
2023/10/01 03:11:16;;;;;;;5.70;3.30;;;14.20;99.90;;;14.43;nan;101546.22;4903870;29;21129;-70
2023/10/01 03:13:47;;;;;;;2.93;2.10;;;14.10;99.90;;;14.41;nan;101530.59;4910496;29;20681;-69
2023/10/01 03:17:06;;;;;;;10.90;2.60;;;14.10;99.90;;;14.32;nan;101525.16;4906093;29;20665;-68
2023/10/01 03:19:17;;;;;;;3.80;2.40;;;14.10;99.90;;;14.19;nan;101514.69;4907555;29;20650;-68
2023/10/01 03:24:39;;;;;;;7.60;2.63;;;13.80;99.90;;;14.00;nan;101512.56;4906807;29;20634;-68
2023/10/01 03:27:40;;;;;;;3.60;2.60;;;13.80;99.90;;;13.88;nan;101505.56;4912319;29;20680;-70
2023/10/01 03:30:20;;;;;;;4.03;2.60;;;13.60;99.90;;;13.76;nan;101503.81;4907578;29;20713;-70
2023/10/01 03:32:47;;;;;;;6.20;3.40;;;13.50;99.90;;;13.71;nan;101503.34;4907354;29;21250;-68
2023/10/01 03:35:14;;;;;;;4.10;3.37;;;13.40;99.90;;;13.74;nan;101508.34;4905585;29;20693;-70
2023/10/01 03:37:43;;;;;;;4.23;2.97;;;13.50;99.90;;;13.81;nan;101504.34;4906826;29;20670;-70
2023/10/01 03:40:22;;;;;;;7.60;3.70;;;13.50;99.90;;;13.88;nan;101505.56;4907206;29;20650;-69
2023/10/01 03:42:52;;;;;;;5.40;3.07;;;13.60;99.90;;;13.95;nan;101506.81;4914661;29;20644;-70
2023/10/01 03:45:36;;;;;;;10.77;3.90;;;13.60;99.90;;;14.02;nan;101518.53;4891373;29;20646;-70
2023/10/01 03:48:07;;;;;;;5.17;3.10;;;13.70;99.90;;;14.06;nan;101519.16;4918305;29;20642;-68
2023/10/01 03:50:45;;;;;;;4.40;2.97;;;13.70;99.90;;;14.12;nan;101523.13;4905664;29;20692;-69
2023/10/01 03:53:13;;;;;;;3.73;2.87;;;13.80;99.90;;;14.10;nan;101528.47;4909277;29;20725;-69
2023/10/01 03:55:42;;;;;;;4.67;3.27;;;13.80;99.90;;;14.09;nan;101533.84;4902965;29;20638;-70
2023/10/01 03:58:18;;;;;;;8.50;3.80;;;13.80;99.90;;;14.07;nan;101535.75;4910728;29;20640;-69
2023/10/01 04:00:53;;;;;;;6.00;2.30;;;13.80;99.90;;;14.05;nan;101528.00;4923106;29;21276;-71
2023/10/01 04:03:21;;;;;;;3.20;2.60;;;13.80;99.90;;;14.03;nan;101535.94;4912135;29;20663;-68
2023/10/01 04:05:56;;;;;;;5.67;3.37;;;13.70;99.90;;;14.02;nan;101529.03;4911965;29;20653;-67
2023/10/01 04:08:23;;;;;;;6.00;3.47;;;13.70;99.90;;;14.06;nan;101531.44;4910045;29;20636;-69
2023/10/01 04:10:58;;;;;;;4.70;3.47;;;13.80;99.90;;;14.03;nan;101537.75;4914675;29;20641;-69
2023/10/01 04:13:27;;;;;;;7.00;3.50;;;13.80;99.90;;;14.01;nan;101540.47;4928887;29;20677;-69
2023/10/01 04:16:07;;;;;;;4.60;3.30;;;13.70;99.90;;;14.00;nan;101551.94;4918148;29;20669;-69
2023/10/01 04:18:36;;;;;;;3.80;3.00;;;13.70;99.90;;;14.00;nan;101546.69;4911228;29;20633;-69
2023/10/01 04:23:48;;;;;;;3.80;2.90;;;13.70;99.90;;;13.99;nan;101550.25;4909417;29;20634;-70
2023/10/01 04:26:17;;;;;;;8.50;3.30;;;13.70;99.90;;;13.96;nan;101550.47;4908314;29;20662;-67
2023/10/01 04:28:50;;;;;;;4.13;2.83;;;13.70;99.90;;;13.95;nan;101551.41;4914676;29;21366;-70
2023/10/01 04:31:42;;;;;;;5.83;2.77;;;13.70;99.90;;;13.91;nan;101549.13;4909436;29;20642;-69
2023/10/01 04:34:12;;;;;;;3.20;1.93;;;13.60;99.90;;;13.82;nan;101540.09;4926883;29;20669;-68
2023/10/01 04:36:50;;;;;;;5.57;2.50;;;13.60;99.90;;;13.73;nan;101539.94;4914561;29;20673;-69
2023/10/01 04:39:17;;;;;;;6.70;2.40;;;13.40;99.90;;;13.68;nan;101540.25;4916526;29;20633;-69
2023/10/01 04:41:46;;;;;;;5.93;2.73;;;13.40;99.90;;;13.63;nan;101542.34;4909143;29;20642;-70
2023/10/01 04:44:19;;;;;;;4.50;2.97;;;13.30;99.90;;;13.58;nan;101543.63;4906296;29;21274;-68
2023/10/01 04:46:46;;;;;;;2.93;2.50;;;13.30;99.90;;;13.50;nan;101541.53;4915162;29;20661;-70
2023/10/01 04:49:39;;;;;;;3.60;3.10;;;13.30;99.90;;;13.43;nan;101539.47;4913643;29;20653;-69
2023/10/01 04:52:10;;;;;;;4.37;2.97;;;13.20;99.90;;;13.45;nan;101542.81;4906980;29;20638;-70
2023/10/01 04:54:39;;;;;;;5.10;2.90;;;13.10;99.90;;;13.47;nan;101547.00;4915176;29;20712;-70
2023/10/01 04:57:07;;;;;;;4.93;3.37;;;13.20;99.90;;;13.50;nan;101535.47;4916978;29;20662;-69
2023/10/01 04:59:33;;;;;;;6.37;3.53;;;13.20;99.90;;;13.56;nan;101549.00;4906727;29;21021;-68
2023/10/01 05:02:18;;;;;;;4.90;3.53;;;13.20;99.90;;;13.58;nan;101544.47;4907121;29;20988;-71
2023/10/01 05:04:46;;;;;;;4.70;2.67;;;13.30;99.90;;;13.57;nan;101545.41;4910481;29;21188;-70
2023/10/01 05:07:15;;;;;;;5.67;3.20;;;13.30;99.90;;;13.56;nan;101556.03;4924590;29;20662;-70
2023/10/01 05:09:43;;;;;;;5.03;3.17;;;13.30;99.90;;;13.56;nan;101545.53;4912054;29;21251;-70
2023/10/01 05:12:12;;;;;;;3.97;2.60;;;13.30;99.90;;;13.55;nan;101552.56;4913380;29;21357;-71
2023/10/01 05:14:59;;;;;;;4.27;3.10;;;13.30;99.90;;;13.59;nan;101561.88;4915268;29;21056;-70
2023/10/01 05:17:30;;;;;;;3.43;2.77;;;13.30;99.90;;;13.63;nan;101568.59;4910233;29;20669;-69
2023/10/01 05:19:58;;;;;;;4.80;3.00;;;13.30;99.90;;;13.65;nan;101569.31;4906227;29;20638;-70
2023/10/01 05:22:26;;;;;;;3.10;2.83;;;13.40;99.90;;;13.68;nan;101569.09;4912716;29;20700;-70
2023/10/01 05:24:53;;;;;;;4.50;3.13;;;13.40;99.90;;;13.72;nan;101581.06;4905188;29;20634;-70
2023/10/01 05:27:22;;;;;;;5.10;3.73;;;13.40;99.90;;;13.73;nan;101585.38;4910843;29;20661;-70
2023/10/01 05:29:49;;;;;;;10.13;3.77;;;13.40;99.90;;;13.76;nan;101590.38;4912637;29;20650;-70
2023/10/01 05:32:18;;;;;;;8.20;3.40;;;13.50;99.90;;;13.78;nan;101593.75;4920864;29;21073;-69
2023/10/01 05:34:48;;;;;;;6.30;3.43;;;13.50;99.90;;;13.83;nan;101596.03;4912721;29;21140;-70
2023/10/01 05:37:24;;;;;;;3.80;2.90;;;13.50;99.90;;;13.84;nan;101593.31;4903723;29;20666;-69
2023/10/01 05:39:58;;;;;;;4.33;3.27;;;13.60;99.90;;;13.89;nan;101599.06;4911986;29;20641;-70
2023/10/01 05:42:34;;;;;;;11.00;3.47;;;13.60;99.90;;;13.93;nan;101603.16;4914362;29;20637;-71
2023/10/01 05:45:04;;;;;;;4.60;2.93;;;13.60;99.90;;;13.95;nan;101603.03;4926618;29;21286;-71
2023/10/01 05:47:51;;;;;;;10.20;4.00;;;13.70;99.90;;;13.98;nan;101606.31;4914573;29;21243;-71
2023/10/01 05:50:19;;;;;;;3.77;3.00;;;13.70;99.90;;;14.11;nan;101605.44;4912567;29;20650;-68
2023/10/01 05:52:46;;;;;;;5.07;3.37;;;13.80;99.90;;;14.22;nan;101605.50;4914482;29;20634;-70
2023/10/01 05:55:15;;;;;;;3.73;2.90;;;13.90;99.90;;;14.38;nan;101603.47;4926091;29;21044;-71
2023/10/01 05:57:43;;;;;;;2.80;2.60;;;14.00;99.90;;;14.63;nan;101611.22;4924591;29;20658;-70
2023/10/01 06:00:18;;;;;;;4.80;2.77;;;14.20;99.90;;;14.88;nan;101613.75;4914091;29;20643;-70
2023/10/01 06:03:00;;;;;;;5.20;3.23;;;14.50;99.90;;;14.96;nan;101613.16;4910962;29;20646;-70
2023/10/01 06:05:42;;;;;;;8.13;2.53;;;14.60;99.90;;;15.02;nan;101605.66;4913480;29;20638;-66
2023/10/01 06:08:14;;;;;;;3.20;2.87;;;14.60;99.90;;;15.12;nan;101611.91;4924935;29;21251;-67
2023/10/01 06:11:09;;;;;;;2.50;2.30;;;14.80;99.90;;;15.28;nan;101616.84;4911791;29;20645;-67
2023/10/01 06:13:38;;;;;;;3.70;2.10;;;14.90;99.90;;;15.49;nan;101621.34;4905687;29;20655;-69
2023/10/01 06:16:16;;;;;;;6.27;4.23;;;15.10;99.90;;;15.90;nan;101625.19;4925305;29;20662;-70
2023/10/01 06:18:50;;;;;;;3.20;2.90;;;15.50;99.90;;;16.47;nan;101625.81;4917412;29;20646;-69
2023/10/01 06:21:23;;;;;;;3.03;2.60;;;16.00;99.90;;;17.18;nan;101626.97;4909178;29;20661;-67
2023/10/01 06:23:51;;;;;;;5.63;3.00;;;16.70;99.90;;;17.73;nan;101624.00;4892958;29;21057;-68
2023/10/01 06:26:36;;;;;;;4.60;3.47;;;17.30;99.90;;;18.28;nan;101625.28;4921193;29;21489;-69
2023/10/01 06:29:07;;;;;;;5.67;3.43;;;17.90;99.90;;;18.61;nan;101621.47;4921801;29;20696;-67
2023/10/01 06:32:09;;;;;;;4.07;2.67;;;18.20;99.90;;;18.82;nan;101622.19;4921979;29;20653;-70
2023/10/01 06:34:39;;;;;;;7.33;3.07;;;18.50;99.90;;;19.17;nan;101617.97;4916793;29;20674;-69
2023/10/01 06:37:06;;;;;;;5.33;3.40;;;18.80;99.90;;;19.71;nan;101635.00;4913049;29;20669;-69
2023/10/01 06:39:40;;;;;;;3.50;2.90;;;19.30;99.90;;;20.16;nan;101629.78;4909261;29;20657;-66
2023/10/01 06:42:20;;;;;;;5.60;3.80;;;19.80;99.90;;;20.57;nan;101635.38;4903691;29;20768;-68
2023/10/01 06:44:55;;;;;;;10.10;4.17;;;20.20;99.90;;;21.00;nan;101626.66;4900244;29;20647;-69
2023/10/01 06:47:25;;;;;;;5.73;3.97;;;20.70;99.90;;;21.40;nan;101634.94;4914301;29;20732;-70
2023/10/01 06:49:57;;;;;;;7.47;4.43;;;21.10;99.90;;;21.59;nan;101628.63;4910774;29;20648;-69
2023/10/01 06:52:29;;;;;;;4.73;3.63;;;21.40;99.90;;;21.60;nan;101625.78;4898303;29;20654;-70
2023/10/01 06:54:57;;;;;;;4.77;3.93;;;21.30;99.90;;;21.59;nan;101624.13;4912548;29;20685;-70
2023/10/01 06:57:28;;;;;;;5.33;4.07;;;21.30;99.90;;;21.73;nan;101624.53;4910474;29;20678;-69
2023/10/01 06:59:59;;;;;;;5.77;4.60;;;21.40;99.90;;;22.03;nan;101634.66;4891121;29;20653;-68
2023/10/01 07:02:27;;;;;;;6.00;3.90;;;21.70;99.90;;;22.33;nan;101634.09;4912677;29;20642;-70
2023/10/01 07:04:56;;;;;;;12.87;4.40;;;22.00;99.90;;;22.75;nan;101634.88;4908954;29;20649;-70
2023/10/01 07:07:40;;;;;;;6.67;4.43;;;22.50;99.90;;;23.22;nan;101640.38;4901588;29;20659;-67
2023/10/01 07:10:10;;;;;;;6.53;4.00;;;23.00;99.60;;;23.69;nan;101640.47;4906357;29;20652;-69
2023/10/01 07:12:38;;;;;;;7.93;4.80;;;23.50;98.60;;;24.14;nan;101643.34;4906783;29;20633;-71
2023/10/01 07:15:06;;;;;;;8.60;5.07;;;24.00;97.60;;;24.55;nan;101643.94;4924618;29;21467;-69
2023/10/01 07:17:35;;;;;;;9.97;5.20;;;24.50;96.90;;;24.97;nan;101648.84;4910407;29;20717;-69
2023/10/01 07:20:18;;;;;;;10.20;6.20;;;25.00;96.10;;;25.46;nan;101638.56;4911595;29;20701;-70
2023/10/01 07:22:46;;;;;;;7.50;4.87;;;25.50;95.00;;;26.05;nan;101643.72;4908605;29;20637;-69
2023/10/01 07:25:28;;;;;;;6.60;4.97;;;26.00;93.70;;;26.38;nan;101637.97;4905676;29;20657;-69
2023/10/01 07:27:56;;;;;;;7.53;5.37;;;26.40;92.60;;;26.84;nan;101637.44;4910668;29;20661;-66
2023/10/01 07:30:39;;;;;;;10.93;5.70;;;26.90;91.70;;;27.11;nan;101632.34;4910199;29;20649;-70
2023/10/01 07:33:06;;;;;;;7.00;4.83;;;27.20;90.60;;;27.52;nan;101636.78;4910577;29;20650;-71
2023/10/01 07:35:44;;;;;;;8.37;5.60;;;27.60;90.00;;;27.88;nan;101643.78;4911566;29;20677;-70
2023/10/01 07:38:13;;;;;;;5.30;4.27;;;28.00;87.70;;;28.40;nan;101646.72;4899331;29;20641;-70
2023/10/01 07:41:07;;;;;;;5.60;4.07;;;28.60;85.80;;;28.85;nan;101654.06;4897041;29;21212;-72
2023/10/01 07:43:34;;;;;;;7.80;4.97;;;29.00;83.10;;;29.02;nan;101658.00;4908149;29;20657;-70
2023/10/01 07:46:02;;;;;;;9.43;4.53;;;29.20;81.10;;;29.18;nan;101639.84;4905992;29;20663;-71
2023/10/01 07:48:31;;;;;;;6.80;3.70;;;29.30;80.50;;;29.18;nan;101637.16;4909217;29;21242;-68
2023/10/01 07:51:02;;;;;;;7.53;4.17;;;29.30;79.90;;;29.40;nan;101644.78;4918038;29;21232;-68
2023/10/01 07:53:33;;;;;;;4.30;3.90;;;29.40;79.60;;;29.38;nan;101652.22;4910092;29;20653;-67
2023/10/01 07:56:02;;;;;;;6.23;4.47;;;29.40;78.30;;;29.40;nan;101647.47;4904042;29;20678;-66
2023/10/01 07:58:45;;;;;;;5.53;4.30;;;29.50;78.10;;;29.66;nan;101651.97;4912329;29;21188;-67
2023/10/01 08:04:06;;;;;;;8.20;4.80;;;30.10;76.00;;;30.38;nan;101644.50;4902395;29;20979;-66
2023/10/01 08:06:42;;;;;;;9.17;6.30;;;30.70;74.80;;;30.74;nan;101653.78;4912627;29;20716;-66
2023/10/01 08:09:13;;;;;;;6.60;4.60;;;31.00;73.90;;;31.10;nan;101645.88;4910776;29;20649;-67
2023/10/01 08:11:58;;;;;;;7.90;5.37;;;31.50;72.10;;;31.58;nan;101656.88;4905963;29;21184;-66
2023/10/01 08:14:33;;;;;;;6.17;4.40;;;31.80;71.00;;;31.75;nan;101655.22;4906547;29;21531;-64
2023/10/01 08:17:07;;;;;;;5.03;4.47;;;32.00;69.90;;;31.97;nan;101649.19;4911556;29;20991;-71
2023/10/01 08:19:56;;;;;;;5.43;4.53;;;32.20;68.90;;;31.71;nan;101652.16;4912874;29;20638;-70
2023/10/01 08:22:43;;;;;;;9.93;4.93;;;31.90;68.60;;;31.67;nan;101640.16;4909080;29;20646;-67
2023/10/01 08:25:12;;;;;;;8.50;5.47;;;31.50;69.50;;;31.69;nan;101650.75;4906245;29;20647;-67
2023/10/01 08:28:08;;;;;;;8.83;5.57;;;31.50;69.40;;;31.84;nan;101651.16;4908382;29;20658;-69
2023/10/01 08:30:43;;;;;;;10.20;5.13;;;31.80;68.70;;;31.81;nan;101643.53;4893806;29;21196;-70
2023/10/01 08:33:22;;;;;;;6.10;5.40;;;31.90;68.20;;;31.97;nan;101646.47;4902936;29;20642;-70
2023/10/01 08:36:01;;;;;;;9.00;5.40;;;32.20;67.50;;;32.08;nan;101651.13;4910902;29;20688;-71
2023/10/01 08:38:34;;;;;;;4.97;4.37;;;32.20;67.50;;;33.20;nan;101650.31;4906769;29;20728;-73
2023/10/01 08:41:06;;;;;;;6.00;4.50;;;33.20;66.00;;;33.95;nan;101644.94;4910563;29;20649;-66
2023/10/01 08:43:37;;;;;;;6.93;5.27;;;34.00;64.10;;;34.04;nan;101651.66;4907323;29;20630;-67
2023/10/01 08:46:17;;;;;;;12.23;6.00;;;34.30;63.10;;;34.50;nan;101648.78;4904455;29;20667;-68
2023/10/01 08:48:44;;;;;;;9.90;7.20;;;34.60;62.30;;;35.20;nan;101645.66;4903377;29;20638;-72
2023/10/01 08:51:13;;;;;;;6.80;5.67;;;35.20;61.20;;;35.97;nan;101638.34;4906420;29;20641;-70
2023/10/01 08:53:46;;;;;;;6.63;5.10;;;35.90;60.00;;;36.39;nan;101642.91;4908705;29;20642;-67
2023/10/01 08:56:13;;;;;;;6.03;4.47;;;36.40;58.90;;;36.49;nan;101653.06;4911702;29;20684;-70
2023/10/01 08:58:50;;;;;;;6.37;5.63;;;36.60;58.00;;;36.80;nan;101646.03;4904746;29;20660;-69
2023/10/01 09:01:20;;;;;;;7.97;5.80;;;36.90;57.40;;;37.39;nan;101641.31;4907799;29;20708;-66
2023/10/01 09:03:48;;;;;;;8.47;5.40;;;37.40;56.70;;;37.89;nan;101642.41;4912563;29;20682;-67
2023/10/01 09:06:26;;;;;;;7.33;5.27;;;37.90;56.00;;;38.24;nan;101628.09;4910795;29;20668;-69
2023/10/01 09:09:01;;;;;;;7.13;5.07;;;38.30;54.60;;;38.33;nan;101639.28;4910328;29;20645;-66
2023/10/01 09:11:43;;;;;;;6.20;4.97;;;38.40;53.90;;;38.18;nan;101634.59;4912189;29;21183;-67
2023/10/01 09:14:21;;;;;;;6.20;4.87;;;38.30;53.60;;;38.47;nan;101637.66;4907609;29;21149;-68
2023/10/01 09:16:58;;;;;;;7.57;5.73;;;38.50;53.20;;;38.34;nan;101633.56;4902391;29;20744;-69
2023/10/01 09:19:37;;;;;;;6.00;5.07;;;38.50;52.80;;;38.52;nan;101643.94;4926095;29;20649;-67
2023/10/01 09:22:58;;;;;;;7.30;5.23;;;38.60;52.80;;;38.54;nan;101640.94;4913245;29;21007;-65
2023/10/01 09:25:34;;;;;;;6.50;5.57;;;38.60;52.50;;;37.56;nan;101642.78;4911983;29;21025;-67
2023/10/01 09:28:19;;;;;;;5.60;5.00;;;37.90;52.50;;;36.71;nan;101633.97;4909059;29;20645;-68
2023/10/01 09:31:03;;;;;;;8.13;6.07;;;36.80;53.70;;;35.88;nan;101629.81;4915612;29;20626;-68
2023/10/01 09:33:31;;;;;;;9.40;5.87;;;35.80;55.40;;;34.78;nan;101627.06;4905882;29;20712;-65
2023/10/01 09:36:01;;;;;;;9.20;5.10;;;34.60;56.70;;;33.47;nan;101623.59;4915606;29;20683;-68
2023/10/01 09:38:28;;;;;;;11.63;6.50;;;33.30;58.10;;;31.93;nan;101630.91;4914232;29;20630;-67
2023/10/01 09:41:00;;;;;;;6.57;5.10;;;31.70;60.20;;;30.58;nan;101614.75;4914215;29;21426;-64
2023/10/01 09:43:29;;;;;;;9.53;5.77;;;30.30;62.40;;;29.43;nan;101606.69;4914814;29;20636;-68
2023/10/01 09:46:00;;;;;;;9.27;4.43;;;29.20;65.00;;;28.35;nan;101606.22;4914621;29;20676;-63
2023/10/01 09:48:36;;;;;;;12.33;5.20;;;28.10;67.10;;;27.37;nan;101601.22;4911564;29;20634;-67
2023/10/01 09:51:18;;;;;;;8.50;4.70;;;27.20;69.50;;;26.50;nan;101607.00;4912345;29;20649;-67
2023/10/01 09:54:05;;;;;;;8.17;5.37;;;26.30;72.10;;;25.74;nan;101610.19;4912451;29;20642;-66
2023/10/01 09:59:11;;;;;;;7.20;4.60;;;24.80;76.60;;;24.93;nan;101597.66;4914604;29;20637;-68
2023/10/01 10:01:45;;;;;;;5.50;4.47;;;24.50;78.20;;;24.74;nan;101598.13;4911281;29;20642;-69
2023/10/01 10:04:20;;;;;;;7.97;4.53;;;24.30;80.00;;;24.59;nan;101603.41;4912604;29;20638;-68
2023/10/01 10:06:59;;;;;;;7.07;4.57;;;24.10;81.20;;;24.45;nan;101595.31;4912369;29;20732;-68
2023/10/01 10:09:30;;;;;;;5.50;3.77;;;24.00;81.60;;;24.28;nan;101599.91;4912216;29;20637;-66
2023/10/01 10:12:01;;;;;;;6.47;4.20;;;23.80;83.00;;;24.16;nan;101601.31;4926155;29;20649;-66
2023/10/01 10:14:29;;;;;;;8.57;4.93;;;23.70;83.90;;;24.16;nan;101601.31;4910464;29;20646;-66
2023/10/01 10:16:59;;;;;;;5.30;3.33;;;23.70;85.00;;;24.32;nan;101601.22;4903518;29;21051;-66
2023/10/01 10:19:30;;;;;;;8.60;4.03;;;23.90;84.80;;;25.04;nan;101597.22;4913800;29;20669;-67
2023/10/01 10:24:47;;;;;;;6.40;3.60;;;25.90;80.40;;;27.34;nan;101585.50;4903986;29;20630;-65
2023/10/01 10:27:45;;;;;;;7.57;3.93;;;26.80;78.40;;;27.43;nan;101595.06;4913681;29;20689;-69
2023/10/01 10:30:16;;;;;;;8.17;3.50;;;26.90;77.30;;;26.83;nan;101581.41;4912468;29;20653;-67
2023/10/01 10:33:14;;;;;;;5.87;3.53;;;26.40;78.10;;;25.95;nan;101575.50;4912926;29;20637;-68
2023/10/01 10:35:49;;;;;;;6.10;3.80;;;25.50;79.70;;;25.18;nan;101567.03;4911973;29;20678;-68
2023/10/01 10:38:54;;;;;;;6.43;3.93;;;24.80;82.20;;;24.45;nan;101569.47;4915000;29;21259;-67
2023/10/01 10:41:25;;;;;;;7.57;3.80;;;24.00;84.40;;;24.13;nan;101575.00;4910983;29;20750;-67
2023/10/01 10:44:09;;;;;;;6.80;4.33;;;23.70;86.00;;;23.86;nan;101572.78;4906603;29;20642;-67
2023/10/01 10:47:01;;;;;;;5.97;3.93;;;23.40;87.70;;;23.68;nan;101574.88;4912708;29;21260;-67
2023/10/01 10:49:53;;;;;;;6.03;3.77;;;23.20;89.50;;;23.50;nan;101572.44;4909616;29;20646;-67
2023/10/01 10:52:32;;;;;;;8.30;4.13;;;23.00;90.00;;;23.37;nan;101574.78;4906938;29;20843;-68
2023/10/01 10:55:18;;;;;;;8.20;3.80;;;22.90;90.40;;;23.23;nan;101572.81;4908176;29;20685;-68
2023/10/01 10:57:49;;;;;;;5.80;3.53;;;22.70;90.70;;;23.14;nan;101566.66;4908854;29;20676;-66
2023/10/01 11:00:28;;;;;;;5.67;4.00;;;22.70;91.10;;;23.07;nan;101563.00;4906445;29;21074;-70
2023/10/01 11:02:57;;;;;;;6.17;3.80;;;22.60;91.50;;;22.94;nan;101561.84;4913327;29;20637;-68
2023/10/01 11:05:29;;;;;;;8.60;3.30;;;22.40;92.00;;;22.91;nan;101555.03;4912153;29;20642;-69
2023/10/01 11:07:59;;;;;;;6.50;3.53;;;22.40;92.30;;;22.89;nan;101558.88;4912051;29;20673;-67
2023/10/01 11:10:43;;;;;;;8.00;3.73;;;22.30;93.00;;;22.87;nan;101552.91;4914332;29;20638;-68